createdAt,value
2018-12-05T00:01:20.230Z,3.10
2018-12-05T00:03:49.074Z,3.40
2018-12-05T00:06:17.947Z,3.73
2018-12-05T00:08:58.718Z,4.50
2018-12-05T00:11:27.678Z,3.77
2018-12-05T00:13:56.572Z,2.77
2018-12-05T00:16:25.431Z,3.70
2018-12-05T00:18:54.364Z,3.17
2018-12-05T00:21:23.210Z,4.80
2018-12-05T00:23:52.235Z,3.63
2018-12-05T00:26:22.118Z,3.83
2018-12-05T00:28:50.990Z,3.90
2018-12-05T00:31:19.847Z,4.33
2018-12-05T00:33:48.774Z,4.00
2018-12-05T00:36:17.631Z,3.83
2018-12-05T00:38:46.522Z,4.30
2018-12-05T00:41:16.585Z,4.10
2018-12-05T00:43:45.449Z,4.00
2018-12-05T00:46:14.383Z,4.07
2018-12-05T00:48:43.413Z,3.77
2018-12-05T00:51:12.291Z,3.97
2018-12-05T00:53:41.157Z,3.23
2018-12-05T00:56:10.371Z,3.50
2018-12-05T00:58:39.613Z,3.67
2018-12-05T01:01:09.278Z,3.70
2018-12-05T01:03:38.207Z,3.93
2018-12-05T01:06:07.086Z,3.87
2018-12-05T01:08:35.930Z,3.50
2018-12-05T01:11:04.922Z,3.73
2018-12-05T01:13:33.778Z,3.90
2018-12-05T01:16:02.731Z,4.10
2018-12-05T01:18:31.685Z,3.80
2018-12-05T01:21:00.571Z,4.10
2018-12-05T01:23:29.666Z,4.13
2018-12-05T01:25:58.595Z,3.83
2018-12-05T01:28:27.461Z,3.90
2018-12-05T01:30:56.309Z,3.43
2018-12-05T01:33:25.231Z,3.37
2018-12-05T01:35:54.118Z,4.27
2018-12-05T01:38:23.059Z,3.40
2018-12-05T01:40:51.982Z,3.73
2018-12-05T01:43:20.886Z,3.93
2018-12-05T01:45:49.741Z,4.77
2018-12-05T01:48:18.786Z,3.57
2018-12-05T01:50:47.983Z,3.87
2018-12-05T01:53:16.834Z,3.90
2018-12-05T01:55:45.746Z,3.60
2018-12-05T01:58:14.595Z,2.90
2018-12-05T02:00:43.841Z,3.10
2018-12-05T02:03:13.871Z,3.37
2018-12-05T02:05:42.717Z,3.00
2018-12-05T02:08:11.592Z,3.57
2018-12-05T02:10:40.526Z,2.90
2018-12-05T02:13:09.385Z,3.43
2018-12-05T02:15:38.370Z,2.87
2018-12-05T02:18:07.309Z,2.83
2018-12-05T02:20:36.182Z,3.67
2018-12-05T02:23:05.122Z,3.10
2018-12-05T02:25:34.038Z,2.57
2018-12-05T02:28:09.064Z,2.47
2018-12-05T02:30:44.092Z,3.20
2018-12-05T02:33:12.950Z,3.23
2018-12-05T02:35:41.816Z,2.87
2018-12-05T02:38:10.744Z,3.20
2018-12-05T02:40:39.603Z,2.90
2018-12-05T02:43:08.465Z,2.67
2018-12-05T02:45:37.411Z,3.40
2018-12-05T02:48:06.269Z,3.70
2018-12-05T02:50:35.130Z,3.47
2018-12-05T02:53:04.066Z,2.83
2018-12-05T02:55:32.955Z,2.83
2018-12-05T02:58:01.798Z,3.23
2018-12-05T03:00:30.761Z,3.13
2018-12-05T03:02:59.965Z,3.20
2018-12-05T03:05:28.832Z,3.00
2018-12-05T03:07:57.763Z,3.30
2018-12-05T03:10:26.737Z,3.33
2018-12-05T03:12:55.686Z,3.00
2018-12-05T03:15:24.603Z,3.13
2018-12-05T03:17:53.463Z,3.27
2018-12-05T03:20:22.408Z,2.83
2018-12-05T03:22:51.339Z,2.87
2018-12-05T03:25:20.178Z,3.33
2018-12-05T03:27:49.022Z,3.30
2018-12-05T03:30:18.356Z,2.60
2018-12-05T03:32:47.220Z,3.50
2018-12-05T03:35:18.807Z,3.17
2018-12-05T03:37:47.829Z,3.17
2018-12-05T03:40:16.709Z,3.17
2018-12-05T03:42:45.718Z,3.50
2018-12-05T03:45:14.612Z,4.87
2018-12-05T03:47:43.490Z,4.77
2018-12-05T03:50:12.430Z,4.87
2018-12-05T03:52:41.300Z,3.70
2018-12-05T03:55:10.187Z,4.20
2018-12-05T03:57:39.101Z,4.30
2018-12-05T04:00:08.131Z,4.53
2018-12-05T04:02:36.986Z,4.00
2018-12-05T04:05:06.425Z,4.30
2018-12-05T04:07:35.296Z,4.00
2018-12-05T04:10:04.501Z,3.83
2018-12-05T04:12:40.552Z,4.17
2018-12-05T04:15:04.702Z,4.30
2018-12-05T04:17:33.646Z,3.83
2018-12-05T04:20:02.512Z,3.70
2018-12-05T04:22:32.234Z,3.37
2018-12-05T04:25:01.164Z,3.20
2018-12-05T04:27:30.014Z,3.65
2018-12-05T04:29:59.744Z,3.30
2018-12-05T04:32:28.699Z,3.70
2018-12-05T04:34:57.576Z,4.05
2018-12-05T04:37:26.459Z,3.22
2018-12-05T04:39:55.390Z,4.12
2018-12-05T04:42:24.290Z,4.20
2018-12-05T04:44:53.153Z,3.40
2018-12-05T04:47:22.064Z,4.58
2018-12-05T04:49:50.936Z,3.77
2018-12-05T04:52:19.799Z,3.72
2018-12-05T04:54:48.726Z,2.72
2018-12-05T04:57:17.682Z,3.50
2018-12-05T04:59:46.780Z,3.08
2018-12-05T05:02:15.863Z,3.17
2018-12-05T05:04:44.810Z,3.77
2018-12-05T05:07:14.075Z,3.37
2018-12-05T05:09:43.051Z,5.15
2018-12-05T05:12:11.918Z,5.50
2018-12-05T05:14:40.796Z,3.55
2018-12-05T05:17:09.816Z,3.20
2018-12-05T05:19:38.738Z,3.33
2018-12-05T05:22:07.607Z,3.22
2018-12-05T05:24:36.588Z,3.22
2018-12-05T05:27:05.531Z,3.33
2018-12-05T05:29:34.403Z,3.25
2018-12-05T05:32:03.345Z,3.42
2018-12-05T05:34:32.298Z,2.70
2018-12-05T05:37:01.162Z,3.25
2018-12-05T05:39:30.099Z,3.17
2018-12-05T05:41:58.986Z,2.85
2018-12-05T05:44:27.872Z,3.83
2018-12-05T05:46:56.814Z,3.20
2018-12-05T05:49:26.504Z,3.40
2018-12-05T05:51:55.399Z,3.25
2018-12-05T05:54:24.356Z,3.25
2018-12-05T05:56:53.244Z,2.98
2018-12-05T05:59:22.177Z,3.08
2018-12-05T06:02:03.715Z,3.55
2018-12-05T06:04:32.589Z,2.90
2018-12-05T06:07:01.446Z,3.42
2018-12-05T06:09:30.730Z,3.70
2018-12-05T06:11:59.605Z,2.72
2018-12-05T06:14:28.504Z,3.65
2018-12-05T06:16:57.448Z,2.85
2018-12-05T06:19:26.335Z,3.15
2018-12-05T06:21:55.252Z,3.17
2018-12-05T06:24:24.266Z,2.77
2018-12-05T06:26:53.454Z,3.00
2018-12-05T06:29:22.840Z,2.25
2018-12-05T06:31:52.618Z,2.83
2018-12-05T06:34:21.478Z,2.15
2018-12-05T06:36:50.357Z,3.08
2018-12-05T06:39:19.359Z,2.47
2018-12-05T06:41:48.336Z,2.98
2018-12-05T06:44:17.226Z,2.60
2018-12-05T06:46:46.215Z,3.05
2018-12-05T06:49:15.124Z,2.62
2018-12-05T06:51:44.038Z,2.62
2018-12-05T06:54:13.049Z,2.87
2018-12-05T06:56:42.035Z,2.70
2018-12-05T06:59:11.000Z,3.10
2018-12-05T07:01:41.467Z,3.00
2018-12-05T07:04:10.951Z,3.00
2018-12-05T07:06:39.858Z,3.08
2018-12-05T07:09:09.596Z,2.98
2018-12-05T07:11:39.028Z,3.40
2018-12-05T07:14:08.128Z,2.67
2018-12-05T07:16:37.118Z,2.67
2018-12-05T07:19:18.915Z,2.12
2018-12-05T07:21:47.865Z,2.87
2018-12-05T07:24:16.972Z,2.52
2018-12-05T07:26:45.978Z,2.67
2018-12-05T07:29:14.916Z,2.15
2018-12-05T07:31:43.963Z,2.87
2018-12-05T07:34:13.238Z,3.05
2018-12-05T07:36:42.211Z,2.15
2018-12-05T07:39:11.147Z,2.40
2018-12-05T07:41:41.059Z,2.85
2018-12-05T07:44:10.027Z,1.65
2018-12-05T07:46:39.095Z,2.55
2018-12-05T07:49:08.170Z,2.30
2018-12-05T07:51:37.086Z,2.05
2018-12-05T07:54:05.979Z,1.72
2018-12-05T07:56:35.074Z,2.20
2018-12-05T07:59:04.118Z,2.22
2018-12-05T08:01:33.054Z,2.10
2018-12-05T08:04:02.069Z,1.90
2018-12-05T08:06:31.065Z,2.72
2018-12-05T08:09:00.140Z,2.10
2018-12-05T08:11:29.156Z,2.47
2018-12-05T08:13:58.114Z,1.67
2018-12-05T08:16:27.022Z,2.55
2018-12-05T08:18:56.025Z,2.05
2018-12-05T08:22:54.436Z,2.00
2018-12-05T08:25:23.551Z,1.90
2018-12-05T08:27:52.522Z,2.37
2018-12-05T08:30:21.448Z,2.70
2018-12-05T08:32:52.941Z,3.37
2018-12-05T08:35:21.837Z,2.37
2018-12-05T08:37:50.784Z,1.90
2018-12-05T08:40:19.755Z,2.30
2018-12-05T08:42:48.847Z,2.20
2018-12-05T08:45:18.909Z,2.10
2018-12-05T08:47:48.065Z,2.25
2018-12-05T08:50:17.142Z,2.15
2018-12-05T08:52:46.434Z,2.57
2018-12-05T08:55:15.486Z,2.72
2018-12-05T08:57:44.379Z,2.40
2018-12-05T09:00:13.426Z,2.80
2018-12-05T09:02:42.497Z,2.37
2018-12-05T09:05:11.486Z,2.60
2018-12-05T09:07:40.466Z,2.35
2018-12-05T09:10:09.590Z,2.45
2018-12-05T09:12:38.571Z,2.27
2018-12-05T09:15:07.669Z,2.72
2018-12-05T09:17:36.715Z,2.67
2018-12-05T09:20:07.137Z,2.67
2018-12-05T09:22:41.465Z,2.67
2018-12-05T09:25:09.400Z,2.55
2018-12-05T09:27:38.475Z,3.12
2018-12-05T09:30:07.503Z,3.10
2018-12-05T09:32:36.482Z,2.52
2018-12-05T09:35:05.808Z,2.95
2018-12-05T09:37:34.694Z,3.08
2018-12-05T09:40:03.783Z,2.45
2018-12-05T09:42:32.787Z,2.77
2018-12-05T09:45:01.826Z,2.40
2018-12-05T09:47:30.698Z,2.80
2018-12-05T09:49:59.686Z,2.58
2018-12-05T09:52:28.557Z,2.70
2018-12-05T09:54:57.462Z,3.37
2018-12-05T09:57:26.401Z,2.60
2018-12-05T09:59:55.338Z,3.15
2018-12-05T10:02:24.854Z,2.65
2018-12-05T10:04:53.863Z,2.70
2018-12-05T10:07:23.626Z,2.37
2018-12-05T10:09:54.875Z,2.50
2018-12-05T10:12:23.890Z,2.77
2018-12-05T10:14:52.852Z,2.30
2018-12-05T10:17:21.909Z,3.00
2018-12-05T10:19:50.823Z,2.17
2018-12-05T10:22:19.711Z,2.47
2018-12-05T10:24:50.862Z,2.62
2018-12-05T10:27:20.853Z,2.42
2018-12-05T10:29:49.804Z,2.40
2018-12-05T10:32:18.823Z,2.70
2018-12-05T10:34:47.714Z,2.77
2018-12-05T10:37:16.841Z,2.58
2018-12-05T10:39:45.960Z,2.50
2018-12-05T10:42:15.038Z,2.77
2018-12-05T10:44:43.995Z,3.20
2018-12-05T10:47:14.162Z,1.95
2018-12-05T10:49:43.288Z,2.40
2018-12-05T10:52:12.217Z,2.42
2018-12-05T10:54:41.234Z,2.00
2018-12-05T10:57:10.991Z,2.40
2018-12-05T10:59:39.941Z,2.40
2018-12-05T11:02:15.858Z,2.55
2018-12-05T11:04:53.219Z,2.50
2018-12-05T11:07:30.599Z,2.17
2018-12-05T11:12:07.651Z,2.40
2018-12-05T11:14:43.834Z,2.52
2018-12-05T11:17:21.303Z,2.40
2018-12-05T11:19:58.524Z,1.87
2018-12-05T11:22:33.567Z,1.52
2018-12-05T11:25:05.631Z,2.02
2018-12-05T11:27:34.605Z,2.22
2018-12-05T11:30:03.690Z,2.92
2018-12-05T11:32:32.743Z,1.80
2018-12-05T11:35:01.775Z,2.08
2018-12-05T11:37:30.644Z,1.98
2018-12-05T11:39:59.679Z,1.87
2018-12-05T11:42:29.549Z,1.72
2018-12-05T11:44:58.460Z,1.90
2018-12-05T11:47:27.932Z,2.08
2018-12-05T11:49:57.048Z,2.00
2018-12-05T11:52:26.077Z,2.27
2018-12-05T11:54:55.079Z,1.95
2018-12-05T11:57:24.090Z,2.20
2018-12-05T11:59:53.310Z,1.65
2018-12-05T12:02:22.551Z,2.20
2018-12-05T12:04:51.681Z,2.20
2018-12-05T12:07:20.862Z,2.22
2018-12-05T12:09:49.965Z,2.08
2018-12-05T12:12:27.471Z,2.60
2018-12-05T12:14:56.590Z,2.35
2018-12-05T12:17:25.551Z,2.85
2018-12-05T12:19:54.601Z,2.10
2018-12-05T12:22:23.710Z,2.10
2018-12-05T12:24:52.851Z,3.60
2018-12-05T12:27:22.145Z,2.87
2018-12-05T12:29:52.084Z,2.60
2018-12-05T12:32:21.006Z,1.95
2018-12-05T12:34:49.987Z,3.25
2018-12-05T12:37:19.127Z,3.52
2018-12-05T12:39:48.053Z,2.83
2018-12-05T12:42:16.995Z,2.98
2018-12-05T12:44:45.997Z,2.30
2018-12-05T12:47:15.077Z,3.20
2018-12-05T12:49:44.097Z,2.70
2018-12-05T12:52:13.071Z,2.85
2018-12-05T12:54:42.106Z,3.65
2018-12-05T12:57:11.117Z,2.40
2018-12-05T12:59:40.213Z,3.25
2018-12-05T13:02:09.162Z,3.02
2018-12-05T13:04:38.410Z,2.70
2018-12-05T13:07:08.530Z,2.20
2018-12-05T13:09:37.483Z,2.05
2018-12-05T13:12:06.504Z,2.37
2018-12-05T13:14:35.443Z,2.60
2018-12-05T13:17:04.498Z,2.80
2018-12-05T13:22:25.066Z,4.42
2018-12-05T13:24:54.109Z,3.10
2018-12-05T13:27:25.548Z,2.25
2018-12-05T13:29:54.484Z,2.58
2018-12-05T13:32:23.407Z,2.27
2018-12-05T13:34:52.444Z,2.02
2018-12-05T13:37:21.407Z,2.50
2018-12-05T13:39:50.490Z,2.40
2018-12-05T13:42:20.468Z,2.05
2018-12-05T13:44:49.363Z,3.67
2018-12-05T13:47:18.386Z,2.70
2018-12-05T13:49:47.342Z,2.98
2018-12-05T13:52:16.345Z,2.83
2018-12-05T13:54:45.341Z,2.77
2018-12-05T13:57:14.315Z,2.33
2018-12-05T13:59:43.332Z,2.50
2018-12-05T14:02:12.246Z,2.35
2018-12-05T14:04:41.315Z,2.80
2018-12-05T14:07:10.214Z,2.67
2018-12-05T14:09:39.144Z,2.58
2018-12-05T14:12:10.346Z,2.62
2018-12-05T14:14:39.435Z,3.10
2018-12-05T14:17:08.441Z,3.37
2018-12-05T14:19:37.442Z,3.08
2018-12-05T14:22:06.339Z,2.98
2018-12-05T14:24:35.323Z,3.08
2018-12-05T14:27:04.640Z,3.87
2018-12-05T14:29:34.018Z,2.47
2018-12-05T14:32:03.198Z,3.30
2018-12-05T14:34:32.316Z,3.00
2018-12-05T14:37:01.319Z,2.02
2018-12-05T14:39:30.335Z,3.17
2018-12-05T14:41:59.358Z,2.80
2018-12-05T14:44:28.745Z,2.45
2018-12-05T14:46:57.758Z,2.60
2018-12-05T14:49:26.724Z,2.42
2018-12-05T14:51:55.672Z,2.70
2018-12-05T14:54:24.631Z,2.67
2018-12-05T14:56:53.810Z,2.58
2018-12-05T14:59:23.014Z,2.55
2018-12-05T15:01:52.148Z,3.15
